Time;durP1;ratioP1;P1;durP2;ratioP2;P2;SDS_P1;SDS_P2;PMS_P1;PMS_P2;Temp;Humidity;BMP_temperature;BMP_pressure;BME280_temperature;BME280_humidity;BME280_pressure;Samples;Min_cycle;Max_cycle;Signal;HPM_P1;HPM_P2
2021/03/31 00:01:41;;;;;;;44.20;28.15;;;;;;;16.90;48.61;102456.00;5034986;28;20049;-64
2021/03/31 00:04:08;;;;;;;44.97;28.85;;;;;;;16.85;48.66;102456.28;5034952;28;20049;-64
2021/03/31 00:06:35;;;;;;;43.80;28.77;;;;;;;16.80;48.86;102453.88;5034692;28;20410;-64
2021/03/31 00:09:02;;;;;;;52.05;30.00;;;;;;;16.75;48.80;102450.63;5034733;28;20049;-64
2021/03/31 00:11:28;;;;;;;48.78;29.88;;;;;;;16.70;48.68;102450.03;5034045;28;20099;-65
2021/03/31 00:13:57;;;;;;;48.42;29.73;;;;;;;16.68;49.01;102445.75;5034741;28;20188;-64
2021/03/31 00:16:23;;;;;;;55.92;30.35;;;;;;;16.67;48.99;102441.38;5034545;28;20042;-64
2021/03/31 00:18:50;;;;;;;62.35;30.23;;;;;;;16.64;49.04;102442.41;5034756;28;20107;-65
2021/03/31 00:21:17;;;;;;;65.90;30.55;;;;;;;16.61;49.08;102439.94;5034538;28;20049;-64
2021/03/31 00:23:43;;;;;;;53.63;29.92;;;;;;;16.59;49.28;102441.81;5045727;28;20114;-65
2021/03/31 00:26:09;;;;;;;51.65;29.52;;;;;;;16.55;49.27;102443.75;5034181;28;20089;-70
2021/03/31 00:28:36;;;;;;;53.50;29.65;;;;;;;16.53;49.63;102440.34;5034376;28;20041;-72
2021/03/31 00:31:02;;;;;;;52.95;30.30;;;;;;;16.51;49.76;102436.09;5042542;28;20539;-64
2021/03/31 00:33:28;;;;;;;54.75;30.38;;;;;;;16.48;49.63;102434.44;5054255;28;20048;-64
2021/03/31 00:35:54;;;;;;;54.10;30.65;;;;;;;16.45;49.80;102426.66;5054418;28;20045;-64
2021/03/31 00:38:20;;;;;;;66.20;31.55;;;;;;;16.41;49.97;102425.97;5053270;28;20123;-64
2021/03/31 00:40:50;;;;;;;57.28;29.33;;;;;;;16.39;49.82;102432.28;5054062;28;20103;-64
2021/03/31 00:43:20;;;;;;;56.13;29.83;;;;;;;16.35;49.89;102422.81;5054071;28;20045;-63
2021/03/31 00:45:47;;;;;;;49.42;29.55;;;;;;;16.33;49.82;102414.94;5047585;28;20050;-64
2021/03/31 00:48:14;;;;;;;46.25;29.75;;;;;;;16.30;49.74;102412.44;5033936;28;20056;-63
2021/03/31 00:50:54;;;;;;;44.53;27.80;;;;;;;16.27;50.01;102413.47;5051793;28;20060;-65
2021/03/31 00:53:29;;;;;;;48.55;29.02;;;;;;;16.24;49.92;102418.06;5053853;28;20040;-64
2021/03/31 00:55:56;;;;;;;48.08;28.88;;;;;;;16.22;50.24;102414.66;5046274;28;20119;-64
2021/03/31 00:58:23;;;;;;;47.92;29.65;;;;;;;16.19;50.34;102414.81;5033839;28;20418;-64
2021/03/31 01:00:49;;;;;;;44.20;28.27;;;;;;;16.15;50.37;102411.47;5033752;28;20085;-65
2021/03/31 01:03:15;;;;;;;46.22;28.48;;;;;;;16.11;50.52;102407.28;5033773;28;20049;-64
2021/03/31 01:05:42;;;;;;;45.10;28.40;;;;;;;16.08;50.34;102410.94;5033521;28;20412;-65
2021/03/31 01:08:08;;;;;;;49.90;30.40;;;;;;;16.07;50.66;102414.53;5033866;28;20049;-64
2021/03/31 01:10:47;;;;;;;46.20;28.58;;;;;;;16.04;50.55;102405.91;5033594;28;20053;-64
2021/03/31 01:13:37;;;;;;;43.80;28.25;;;;;;;16.05;50.81;102410.25;5033550;28;20049;-65
2021/03/31 01:16:12;;;;;;;47.15;28.95;;;;;;;16.06;50.94;102414.63;5033562;28;20118;-65
2021/03/31 01:18:50;;;;;;;48.15;27.90;;;;;;;16.07;50.95;102408.38;5033404;28;20045;-64
2021/03/31 01:21:53;;;;;;;46.33;29.10;;;;;;;16.07;51.07;102398.63;5033569;28;20053;-64
2021/03/31 01:24:42;;;;;;;44.63;29.33;;;;;;;16.06;51.14;102399.59;5032618;28;20053;-64
2021/03/31 01:27:16;;;;;;;45.95;28.95;;;;;;;16.05;51.15;102399.66;5033375;28;20465;-65
2021/03/31 01:30:19;;;;;;;45.88;28.52;;;;;;;16.04;51.03;102396.16;5033163;28;20060;-64
2021/03/31 01:32:58;;;;;;;42.40;28.10;;;;;;;16.00;50.91;102397.28;5033132;28;20041;-65
2021/03/31 01:35:25;;;;;;;44.65;29.02;;;;;;;15.98;51.20;102396.50;5033168;28;20054;-64
2021/03/31 01:37:59;;;;;;;48.72;28.77;;;;;;;15.95;51.12;102394.88;5033220;28;20100;-69
2021/03/31 01:40:27;;;;;;;47.17;29.20;;;;;;;15.93;51.16;102388.78;5033190;28;20056;-64
2021/03/31 01:43:01;;;;;;;42.63;29.83;;;;;;;15.93;51.33;102395.88;5033058;28;20048;-64
2021/03/31 01:45:33;;;;;;;48.05;31.20;;;;;;;15.93;51.59;102394.06;5032992;28;20544;-64
2021/03/31 01:48:04;;;;;;;44.55;29.67;;;;;;;15.95;51.63;102392.22;5033103;28;20041;-64
2021/03/31 01:50:32;;;;;;;44.70;28.85;;;;;;;15.93;51.54;102386.13;5033044;28;20461;-65
2021/03/31 01:53:01;;;;;;;48.67;29.63;;;;;;;15.91;51.39;102384.50;5032943;28;20553;-64
2021/03/31 01:55:29;;;;;;;44.97;28.58;;;;;;;15.88;51.41;102385.53;5032954;28;20045;-65
2021/03/31 01:57:57;;;;;;;43.13;29.02;;;;;;;15.85;51.58;102377.75;5032841;28;20050;-65
2021/03/31 02:00:25;;;;;;;44.25;30.42;;;;;;;15.83;51.33;102382.25;5032751;28;20084;-64
2021/03/31 02:02:54;;;;;;;49.38;31.00;;;;;;;15.81;51.46;102382.34;5032768;28;20049;-67
2021/03/31 02:05:24;;;;;;;47.10;29.77;;;;;;;15.81;51.55;102386.78;5032518;28;20049;-64
2021/03/31 02:07:51;;;;;;;45.08;29.52;;;;;;;15.81;51.48;102384.13;5032702;28;20053;-64
2021/03/31 02:10:22;;;;;;;41.17;28.63;;;;;;;15.78;51.43;102387.78;5032600;28;20045;-64
2021/03/31 02:12:50;;;;;;;43.60;29.63;;;;;;;15.74;51.31;102388.88;5032657;28;20072;-64
2021/03/31 02:15:23;;;;;;;40.33;27.20;;;;;;;15.70;51.37;102382.03;5032474;28;20052;-64
2021/03/31 02:17:50;;;;;;;45.42;29.50;;;;;;;15.67;51.29;102382.19;5032563;28;20050;-64
2021/03/31 02:20:19;;;;;;;45.17;28.35;;;;;;;15.65;51.32;102384.06;5031996;28;20038;-65
2021/03/31 02:22:48;;;;;;;46.95;29.05;;;;;;;15.63;51.39;102385.91;5032258;28;20060;-64
2021/03/31 02:25:15;;;;;;;45.92;30.05;;;;;;;15.61;51.41;102378.06;5032498;28;20406;-65
2021/03/31 02:27:41;;;;;;;46.60;28.92;;;;;;;15.59;51.67;102379.97;5032247;28;20049;-64
2021/03/31 02:30:10;;;;;;;51.47;28.15;;;;;;;15.59;51.48;102387.03;5032424;28;20831;-65
2021/03/31 02:32:37;;;;;;;67.22;28.70;;;;;;;15.58;51.52;102380.00;5032203;28;20053;-64
2021/03/31 02:35:05;;;;;;;65.72;30.40;;;;;;;15.55;51.46;102377.53;5032191;28;20049;-64
2021/03/31 02:37:31;;;;;;;64.30;29.92;;;;;;;15.51;51.31;102376.84;5032171;28;20048;-64
2021/03/31 02:39:59;;;;;;;55.42;29.35;;;;;;;15.46;51.41;102374.41;5032389;28;20146;-65
2021/03/31 02:42:26;;;;;;;63.25;29.50;;;;;;;15.45;51.41;102372.72;5032218;28;20049;-64
2021/03/31 02:44:56;;;;;;;52.45;29.40;;;;;;;15.42;51.52;102370.22;5032390;28;20049;-64
2021/03/31 02:47:27;;;;;;;49.00;29.23;;;;;;;15.39;51.60;102369.50;5032312;28;20075;-65
2021/03/31 02:49:58;;;;;;;49.53;28.88;;;;;;;15.37;51.53;102368.75;5032385;28;20049;-64
2021/03/31 02:52:24;;;;;;;52.10;30.02;;;;;;;15.34;51.62;102364.47;5032196;28;20403;-64
2021/03/31 02:54:53;;;;;;;56.35;29.15;;;;;;;15.33;51.72;102368.06;5032143;28;20057;-75
2021/03/31 02:57:21;;;;;;;52.90;29.42;;;;;;;15.27;51.65;102361.25;5032002;28;20079;-69
2021/03/31 02:59:49;;;;;;;48.60;29.83;;;;;;;15.25;51.57;102365.78;5032213;28;20057;-64
2021/03/31 03:02:17;;;;;;;45.95;29.23;;;;;;;15.22;51.74;102365.09;5032425;28;20046;-64
2021/03/31 03:04:52;;;;;;;61.63;30.75;;;;;;;15.19;51.59;102356.38;5047750;28;20045;-64
2021/03/31 03:07:19;;;;;;;50.88;28.65;;;;;;;15.18;51.81;102359.09;5048519;28;20475;-64
2021/03/31 03:09:46;;;;;;;53.97;28.13;;;;;;;15.17;51.70;102366.19;5043947;28;20107;-64
2021/03/31 03:12:15;;;;;;;51.70;29.10;;;;;;;15.16;52.02;102366.25;5043884;28;20509;-65
2021/03/31 03:14:47;;;;;;;45.60;29.58;;;;;;;15.16;52.01;102358.31;5028509;28;20465;-64
2021/03/31 03:17:15;;;;;;;47.60;28.83;;;;;;;15.12;51.90;102360.28;5028605;28;20049;-64
2021/03/31 03:19:42;;;;;;;50.95;28.83;;;;;;;15.08;51.89;102355.22;5028522;28;20072;-65
2021/03/31 03:22:09;;;;;;;47.97;29.13;;;;;;;15.04;51.80;102359.78;5028247;28;20053;-65
2021/03/31 03:24:36;;;;;;;51.58;30.65;;;;;;;15.01;51.96;102359.94;5028630;28;20107;-64
2021/03/31 03:27:05;;;;;;;48.33;28.10;;;;;;;15.00;51.89;102360.88;5028520;28;20502;-64
2021/03/31 03:29:31;;;;;;;45.35;28.23;;;;;;;14.97;52.19;102359.25;5028362;28;20045;-64
2021/03/31 03:31:58;;;;;;;49.38;29.70;;;;;;;14.95;52.32;102357.59;5028581;28;20054;-64
2021/03/31 03:34:24;;;;;;;49.58;30.35;;;;;;;14.91;52.40;102356.91;5028304;28;20045;-64
2021/03/31 03:36:51;;;;;;;46.47;29.55;;;;;;;14.89;52.43;102356.09;5028300;28;20062;-64
2021/03/31 03:39:18;;;;;;;44.65;29.23;;;;;;;14.86;52.54;102359.75;5028352;28;20517;-64
2021/03/31 03:41:44;;;;;;;48.95;30.33;;;;;;;14.87;52.83;102350.06;5028361;28;20046;-64
2021/03/31 03:44:11;;;;;;;44.47;29.38;;;;;;;14.85;52.75;102359.84;5028487;28;20417;-63
2021/03/31 03:46:38;;;;;;;51.88;30.00;;;;;;;14.84;52.62;102363.41;5028672;28;20057;-64
2021/03/31 03:49:05;;;;;;;49.00;29.05;;;;;;;14.82;52.89;102362.63;5031813;28;20045;-64
2021/03/31 03:51:33;;;;;;;54.13;31.02;;;;;;;14.80;52.91;102356.56;5031936;28;20513;-65
2021/03/31 03:53:59;;;;;;;56.28;30.73;;;;;;;14.77;52.94;102356.72;5032063;28;20050;-64
2021/03/31 03:56:26;;;;;;;65.28;30.33;;;;;;;14.72;52.79;102356.94;5031668;28;20050;-64
2021/03/31 03:58:52;;;;;;;75.25;31.10;;;;;;;14.69;52.15;102367.66;5031776;28;20042;-64
2021/03/31 04:01:18;;;;;;;102.00;32.95;;;;;;;14.65;52.50;102364.31;5031587;28;20563;-65
2021/03/31 04:03:44;;;;;;;107.57;34.35;;;;;;;14.61;52.42;102369.78;5031420;28;20479;-64
2021/03/31 04:06:11;;;;;;;82.38;32.58;;;;;;;14.57;52.47;102366.41;5031584;28;20045;-65
2021/03/31 04:08:37;;;;;;;95.15;33.30;;;;;;;14.55;52.71;102365.66;5031596;28;20417;-64
2021/03/31 04:11:04;;;;;;;92.53;33.35;;;;;;;14.51;52.69;102361.41;5031349;28;20486;-64
2021/03/31 04:13:33;;;;;;;78.68;31.98;;;;;;;14.47;52.69;102368.63;5031199;28;20056;-64
2021/03/31 04:16:05;;;;;;;58.10;30.63;;;;;;;14.44;52.71;102374.06;5031626;28;20050;-64
2021/03/31 04:18:32;;;;;;;54.08;31.58;;;;;;;14.41;52.90;102370.72;5031348;28;20099;-64
2021/03/31 04:20:59;;;;;;;57.80;29.95;;;;;;;14.40;52.96;102366.34;5031634;28;20107;-64
2021/03/31 04:23:27;;;;;;;53.25;32.03;;;;;;;14.39;53.28;102362.03;5031257;28;20053;-64
2021/03/31 04:25:57;;;;;;;55.53;31.73;;;;;;;14.37;53.21;102362.94;5031252;28;20092;-64
2021/03/31 04:28:26;;;;;;;54.13;31.50;;;;;;;14.35;53.31;102374.50;5030831;28;20048;-66
2021/03/31 04:30:54;;;;;;;57.45;31.38;;;;;;;14.34;53.49;102370.16;5031350;28;20045;-65
2021/03/31 04:33:23;;;;;;;58.30;32.95;;;;;;;14.32;53.43;102372.88;5031472;28;20053;-64
2021/03/31 04:35:54;;;;;;;55.90;31.17;;;;;;;14.32;53.42;102378.16;5031388;28;20111;-64
2021/03/31 04:38:21;;;;;;;49.95;30.63;;;;;;;14.32;53.58;102378.16;5030915;28;20049;-62
2021/03/31 04:41:01;;;;;;;54.72;32.67;;;;;;;14.31;53.99;102379.06;5030923;28;20052;-62
2021/03/31 04:43:32;;;;;;;48.25;31.95;;;;;;;14.32;54.25;102372.00;5030995;28;20418;-62
2021/03/31 04:46:00;;;;;;;46.88;30.83;;;;;;;14.32;54.41;102369.34;5030899;28;20053;-62
2021/03/31 04:48:26;;;;;;;52.22;30.10;;;;;;;14.30;54.29;102372.06;5030824;28;20049;-62
2021/03/31 04:50:53;;;;;;;56.15;33.10;;;;;;;14.28;54.26;102375.72;5030942;28;20053;-62
2021/03/31 04:53:19;;;;;;;51.15;31.83;;;;;;;14.24;54.23;102367.06;5030712;28;20042;-62
2021/03/31 04:55:45;;;;;;;60.92;30.98;;;;;;;14.22;53.83;102374.22;5030651;28;20103;-62
2021/03/31 04:58:12;;;;;;;51.83;31.67;;;;;;;14.19;54.07;102377.84;5030646;28;20489;-62
2021/03/31 05:00:38;;;;;;;68.45;33.00;;;;;;;14.16;54.06;102377.13;5030515;28;20084;-62
2021/03/31 05:03:05;;;;;;;68.18;33.03;;;;;;;14.12;53.94;102373.78;5029947;28;20518;-63
2021/03/31 05:05:32;;;;;;;57.72;31.80;;;;;;;14.10;54.22;102366.84;5030101;28;20045;-62
2021/03/31 05:07:58;;;;;;;58.80;32.63;;;;;;;14.09;54.28;102371.25;5030466;28;20049;-62
2021/03/31 05:10:25;;;;;;;59.75;34.47;;;;;;;14.06;54.45;102363.50;5030397;28;20054;-62
2021/03/31 05:12:51;;;;;;;58.78;32.15;;;;;;;14.07;54.61;102369.63;5030318;28;20482;-62
2021/03/31 05:15:18;;;;;;;63.10;30.98;;;;;;;14.05;54.89;102367.06;5031383;28;20049;-62
2021/03/31 05:17:44;;;;;;;60.30;32.40;;;;;;;14.04;54.96;102367.97;5042977;28;20081;-61
2021/03/31 05:20:12;;;;;;;55.67;31.55;;;;;;;14.06;55.07;102371.41;5041285;28;20489;-64
2021/03/31 05:22:38;;;;;;;59.50;31.42;;;;;;;14.09;55.14;102371.25;5046019;28;20068;-67
2021/03/31 05:25:07;;;;;;;63.30;32.70;;;;;;;14.12;55.10;102370.25;5050126;28;20487;-68
2021/03/31 05:27:34;;;;;;;57.22;32.05;;;;;;;14.13;55.02;102378.13;5049875;28;20059;-67
2021/03/31 05:30:04;;;;;;;54.95;30.95;;;;;;;14.13;54.98;102370.22;5050148;28;20052;-67
2021/03/31 05:32:30;;;;;;;51.85;29.83;;;;;;;14.12;54.95;102379.06;5031650;28;20057;-67
2021/03/31 05:34:56;;;;;;;55.60;32.10;;;;;;;14.12;54.94;102376.41;5033397;28;20480;-70
2021/03/31 05:37:22;;;;;;;58.97;32.55;;;;;;;14.14;54.97;102378.97;5029787;28;20056;-67
2021/03/31 05:39:48;;;;;;;53.20;31.83;;;;;;;14.15;55.07;102375.41;5030052;28;20050;-67
2021/03/31 05:42:15;;;;;;;51.70;30.88;;;;;;;14.15;55.44;102383.34;5030058;28;20045;-66
2021/03/31 05:44:44;;;;;;;51.30;31.77;;;;;;;14.16;55.69;102383.25;5029922;28;20460;-65
2021/03/31 05:47:17;;;;;;;58.45;31.67;;;;;;;14.20;55.76;102376.06;5029820;28;20057;-68
2021/03/31 05:49:44;;;;;;;53.47;31.15;;;;;;;14.22;55.94;102382.13;5030333;28;20453;-67
2021/03/31 05:52:11;;;;;;;48.15;30.95;;;;;;;14.25;56.13;102381.16;5041300;28;20045;-66
2021/03/31 05:54:37;;;;;;;54.53;32.83;;;;;;;14.27;56.13;102381.91;5033358;28;20045;-68
2021/03/31 05:57:07;;;;;;;51.55;32.88;;;;;;;14.30;56.28;102382.63;5031530;28;20053;-67
2021/03/31 05:59:34;;;;;;;52.72;31.50;;;;;;;14.33;56.28;102379.84;5028942;28;20387;-66
2021/03/31 06:02:02;;;;;;;50.08;30.95;;;;;;;14.36;56.19;102377.06;5029021;28;20050;-67
2021/03/31 06:04:28;;;;;;;46.33;30.80;;;;;;;14.39;56.29;102378.72;5028893;28;20501;-68
2021/03/31 06:06:54;;;;;;;52.72;30.85;;;;;;;14.43;56.21;102382.06;5035167;28;20151;-66
2021/03/31 06:09:20;;;;;;;48.55;30.00;;;;;;;14.45;56.25;102373.16;5035479;28;20453;-66
2021/03/31 06:11:52;;;;;;;48.92;30.33;;;;;;;14.44;56.35;102378.50;5033482;28;20045;-67
2021/03/31 06:14:35;;;;;;;47.70;28.40;;;;;;;14.44;56.31;102374.06;5045714;28;20059;-73
2021/03/31 06:17:04;;;;;;;44.30;27.90;;;;;;;14.45;56.43;102367.88;5046031;28;20049;-77
2021/03/31 06:19:33;;;;;;;50.60;30.20;;;;;;;14.49;56.42;102372.06;5046764;28;20410;-83
2021/03/31 06:22:43;;;;;;;47.20;30.20;;;;;;;14.51;56.62;102370.22;5044282;28;20041;-69
2021/03/31 06:25:17;;;;;;;51.10;29.65;;;;;;;14.55;56.91;102370.94;5046688;28;20068;-71
2021/03/31 06:27:51;;;;;;;52.97;29.75;;;;;;;14.58;57.26;102369.94;5047240;28;20140;-73
2021/03/31 06:30:22;;;;;;;56.50;32.00;;;;;;;14.61;57.42;102373.25;5047656;28;20045;-76
2021/03/31 06:32:50;;;;;;;49.15;30.98;;;;;;;14.66;57.74;102367.78;5045569;28;20645;-66
2021/03/31 06:35:24;;;;;;;49.08;30.23;;;;;;;14.71;58.09;102375.50;5047284;28;20041;-67
2021/03/31 06:38:01;;;;;;;50.90;30.92;;;;;;;14.71;58.45;102373.72;5046315;28;20045;-66
2021/03/31 06:40:47;;;;;;;48.30;30.15;;;;;;;14.76;58.63;102362.94;5044479;28;20053;-65
2021/03/31 06:43:27;;;;;;;;;;;;;;;14.79;59.11;102371.56;5044090;28;20045;-77
2021/03/31 06:46:04;;;;;;;49.45;30.42;;;;;;;14.84;59.00;102377.50;5046200;28;19925;-64
2021/03/31 06:48:34;;;;;;;51.55;32.17;;;;;;;14.90;59.40;102380.75;5045669;28;20051;-67
2021/03/31 06:51:01;;;;;;;54.95;30.70;;;;;;;14.98;59.55;102371.53;5047866;28;20049;-67
2021/03/31 06:53:34;;;;;;;49.58;30.55;;;;;;;15.07;59.27;102364.06;5047395;28;20067;-66
2021/03/31 06:56:07;;;;;;;51.72;31.83;;;;;;;15.17;59.40;102376.75;5046948;28;20065;-69
2021/03/31 06:58:43;;;;;;;49.28;32.17;;;;;;;15.28;59.32;102370.91;5044723;28;20049;-80
2021/03/31 07:01:31;;;;;;;51.72;30.77;;;;;;;15.39;59.51;102375.69;5045798;28;20041;-66
2021/03/31 07:04:05;;;;;;;47.50;29.92;;;;;;;15.50;59.19;102365.41;5047110;28;20041;-66
2021/03/31 07:06:31;;;;;;;49.88;30.55;;;;;;;15.61;58.88;102371.94;5045360;28;20049;-66
2021/03/31 07:08:58;;;;;;;50.35;31.15;;;;;;;15.72;58.33;102369.56;5047939;28;20107;-65
2021/03/31 07:11:32;;;;;;;48.97;30.13;;;;;;;15.86;58.06;102362.72;5047610;28;20041;-66
2021/03/31 07:14:01;;;;;;;52.58;30.15;;;;;;;15.98;57.57;102362.06;5041370;28;20523;-75
2021/03/31 07:16:27;;;;;;;51.03;30.02;;;;;;;16.08;56.96;102362.44;5048140;28;20049;-84
2021/03/31 07:18:57;;;;;;;52.88;33.90;;;;;;;16.18;56.65;102363.66;5048412;28;20052;-79
2021/03/31 07:21:31;;;;;;;71.97;52.83;;;;;;;16.26;55.84;102366.72;5029377;28;20068;-68
2021/03/31 07:23:58;;;;;;;69.68;49.72;;;;;;;16.35;54.92;102369.81;5031427;28;20053;-78
2021/03/31 07:26:27;;;;;;;78.72;52.53;;;;;;;16.43;53.98;102352.56;5031763;28;20064;-77
2021/03/31 07:28:53;;;;;;;65.97;42.67;;;;;;;16.53;53.65;102360.84;5032448;28;20045;-84
2021/03/31 07:31:25;;;;;;;43.85;29.27;;;;;;;16.61;53.08;102358.63;5033283;28;20049;-66
2021/03/31 07:34:03;;;;;;;48.17;28.05;;;;;;;16.73;52.84;102356.22;5051293;28;20053;-66
2021/03/31 07:36:30;;;;;;;42.65;27.13;;;;;;;16.84;52.56;102360.91;5051638;28;20049;-64
2021/03/31 07:38:58;;;;;;;41.08;27.67;;;;;;;16.93;52.36;102353.28;5051272;28;20053;-71
2021/03/31 07:41:24;;;;;;;45.00;26.90;;;;;;;17.02;52.13;102362.50;5051261;28;20048;-65
2021/03/31 07:43:57;;;;;;;45.90;26.83;;;;;;;17.11;51.54;102359.31;5050858;28;20122;-64
2021/03/31 07:46:28;;;;;;;50.08;28.63;;;;;;;17.19;51.73;102361.53;5050756;28;20126;-67
2021/03/31 07:48:56;;;;;;;46.42;26.92;;;;;;;17.29;51.36;102353.88;5050788;28;20045;-67
2021/03/31 07:51:27;;;;;;;47.97;28.83;;;;;;;17.36;51.04;102357.88;5051395;28;20056;-69
2021/03/31 07:53:58;;;;;;;46.58;29.65;;;;;;;17.45;50.76;102357.31;5048399;28;20045;-62
2021/03/31 07:56:30;;;;;;;46.42;29.80;;;;;;;17.54;51.06;102358.56;5050792;28;20456;-69
2021/03/31 07:59:06;;;;;;;50.20;30.92;;;;;;;17.62;50.80;102352.78;5051030;28;20056;-75
2021/03/31 08:01:41;;;;;;;54.20;30.10;;;;;;;17.71;51.03;102352.25;5049427;28;20056;-66
2021/03/31 08:04:10;;;;;;;50.65;30.42;;;;;;;17.78;50.94;102358.88;5035301;28;20049;-66
2021/03/31 08:06:38;;;;;;;55.17;29.75;;;;;;;17.86;51.00;102360.22;5048544;28;20055;-70
2021/03/31 08:09:08;;;;;;;52.65;31.52;;;;;;;17.97;51.11;102354.25;5047306;28;20390;-66
2021/03/31 08:11:43;;;;;;;53.80;30.88;;;;;;;18.03;50.47;102348.56;5050766;28;20048;-65
2021/03/31 08:14:27;;;;;;;58.35;31.10;;;;;;;18.13;50.18;102351.50;5050050;28;20056;-78
2021/03/31 08:16:59;;;;;;;56.60;31.30;;;;;;;18.18;49.83;102352.06;5051026;28;20133;-79
2021/03/31 08:19:31;;;;;;;52.47;30.17;;;;;;;18.24;49.65;102362.28;5050703;28;20049;-77
2021/03/31 08:22:17;;;;;;;55.67;29.25;;;;;;;18.34;49.36;102352.78;5051179;28;20164;-76
2021/03/31 08:24:46;;;;;;;55.22;29.65;;;;;;;18.47;48.60;102352.84;5049948;28;20053;-69
2021/03/31 08:27:19;;;;;;;51.80;28.10;;;;;;;18.59;48.24;102351.22;5050629;28;20049;-77
2021/03/31 08:29:50;;;;;;;56.88;29.13;;;;;;;18.70;47.44;102346.06;5050931;28;20441;-68
2021/03/31 08:32:17;;;;;;;59.13;29.45;;;;;;;18.83;47.62;102343.44;5050307;28;20049;-65
2021/03/31 08:34:44;;;;;;;56.80;28.75;;;;;;;18.98;47.85;102344.25;5050227;28;20049;-64
2021/03/31 08:37:29;;;;;;;45.80;28.80;;;;;;;19.13;47.54;102345.00;5050572;28;20048;-76
2021/03/31 08:40:00;;;;;;;55.78;29.45;;;;;;;19.26;47.22;102353.00;5050576;28;20052;-73
2021/03/31 08:42:27;;;;;;;51.67;28.85;;;;;;;19.37;47.16;102353.13;5049961;28;20095;-75
2021/03/31 08:44:57;;;;;;;53.63;30.38;;;;;;;19.45;47.05;102339.28;5049859;28;20045;-73
2021/03/31 08:47:32;;;;;;;50.95;29.15;;;;;;;19.53;46.51;102344.94;5045510;28;20056;-67
2021/03/31 08:50:07;;;;;;;51.65;28.52;;;;;;;19.64;46.24;102346.00;5033669;28;20487;-79
2021/03/31 08:52:35;;;;;;;48.58;28.52;;;;;;;19.75;46.10;102351.44;5039843;28;20475;-64
2021/03/31 08:55:11;;;;;;;49.72;27.92;;;;;;;19.88;45.60;102332.81;5050089;28;20060;-76
2021/03/31 08:57:38;;;;;;;51.13;29.40;;;;;;;20.01;45.29;102330.97;5031531;28;20049;-66
2021/03/31 09:00:08;;;;;;;48.83;28.33;;;;;;;20.16;44.88;102330.84;5030165;28;20124;-68
2021/03/31 09:02:40;;;;;;;51.13;26.90;;;;;;;20.28;44.00;102334.41;5040412;28;20045;-66
2021/03/31 09:05:09;;;;;;;48.85;27.75;;;;;;;20.42;43.73;102323.59;5049367;28;20052;-61
2021/03/31 09:07:35;;;;;;;47.08;26.40;;;;;;;20.56;43.90;102322.59;5049613;28;20049;-63
2021/03/31 09:10:03;;;;;;;52.45;27.77;;;;;;;20.67;43.50;102321.78;5049795;28;20117;-75
2021/03/31 09:12:30;;;;;;;57.17;28.75;;;;;;;20.75;43.38;102321.22;5049279;28;20071;-69
2021/03/31 09:14:59;;;;;;;49.95;27.92;;;;;;;20.82;43.08;102311.81;5049100;28;20052;-77
2021/03/31 09:17:26;;;;;;;51.25;27.23;;;;;;;20.92;42.75;102309.31;5048293;28;20053;-77
2021/03/31 09:19:56;;;;;;;49.85;26.70;;;;;;;21.04;42.79;102303.88;5049392;28;20493;-74
2021/03/31 09:22:28;;;;;;;50.60;27.33;;;;;;;21.18;42.31;102307.31;5048993;28;20057;-64
2021/03/31 09:25:07;;;;;;;48.20;26.92;;;;;;;21.33;41.69;102303.44;5049281;28;20432;-72
2021/03/31 09:27:53;;;;;;;45.63;26.58;;;;;;;21.47;41.68;102294.38;5049496;28;20576;-75
2021/03/31 09:30:22;;;;;;;47.67;26.55;;;;;;;21.59;41.51;102291.72;5049785;28;20434;-65
2021/03/31 09:33:05;;;;;;;45.17;25.15;;;;;;;21.73;41.29;102295.97;5049100;28;20520;-72
2021/03/31 09:35:33;;;;;;;45.97;26.40;;;;;;;21.90;40.80;102291.94;5047457;28;20485;-77
2021/03/31 09:38:02;;;;;;;45.42;26.23;;;;;;;22.03;40.18;102290.00;5049101;28;20040;-67
2021/03/31 09:41:00;;;;;;;46.05;25.52;;;;;;;22.22;39.88;102285.78;5049664;28;20469;-77
2021/03/31 09:43:26;;;;;;;48.08;25.70;;;;;;;22.35;39.84;102278.47;5048723;28;20424;-65
2021/03/31 09:45:54;;;;;;;47.38;24.85;;;;;;;22.47;39.68;102272.16;5048431;28;20052;-62
2021/03/31 09:48:21;;;;;;;47.00;25.40;;;;;;;22.60;39.53;102263.94;5048881;28;20095;-68
2021/03/31 09:50:47;;;;;;;43.28;24.73;;;;;;;22.72;39.26;102264.72;5048384;28;20081;-78
2021/03/31 09:53:14;;;;;;;46.75;23.45;;;;;;;22.90;39.05;102258.78;5048796;28;20045;-61
2021/03/31 09:55:41;;;;;;;42.63;21.65;;;;;;;23.04;38.17;102262.97;5047939;28;20102;-66
2021/03/31 09:58:08;;;;;;;38.63;18.73;;;;;;;23.15;37.57;102261.06;5036147;28;20055;-71
2021/03/31 10:00:37;;;;;;;39.50;20.48;;;;;;;23.23;36.38;102252.38;5048308;28;20071;-74
2021/03/31 10:03:06;;;;;;;36.10;20.10;;;;;;;23.42;36.08;102254.28;5047550;28;20206;-60
2021/03/31 10:05:33;;;;;;;44.70;21.20;;;;;;;23.56;35.59;102250.41;5048625;28;20049;-60
2021/03/31 10:08:05;;;;;;;42.05;19.15;;;;;;;23.70;35.01;102251.00;5046452;28;20075;-62
2021/03/31 10:10:45;;;;;;;35.00;20.08;;;;;;;23.83;33.81;102245.41;5028313;28;20049;-65
2021/03/31 10:13:16;;;;;;;36.20;20.23;;;;;;;23.96;33.75;102238.00;5035526;28;20048;-59
2021/03/31 10:16:07;;;;;;;34.95;19.55;;;;;;;24.08;33.01;102247.59;5046310;28;20565;-67
2021/03/31 10:18:34;;;;;;;39.45;20.20;;;;;;;24.13;32.47;102229.22;5028081;28;20498;-61
2021/03/31 10:21:05;;;;;;;39.33;20.15;;;;;;;24.23;31.90;102231.94;5029554;28;20051;-61
2021/03/31 10:23:37;;;;;;;38.53;19.30;;;;;;;24.41;32.56;102229.38;5032707;28;20045;-64
2021/03/31 10:26:46;;;;;;;39.83;19.67;;;;;;;24.53;32.37;102223.88;5030205;28;20053;-62
2021/03/31 10:29:27;;;;;;;34.47;20.05;;;;;;;24.61;32.36;102210.59;5038287;28;20098;-65
2021/03/31 10:32:18;;;;;;;37.47;20.00;;;;;;;24.69;31.95;102205.38;5032255;28;20500;-60
2021/03/31 10:34:52;;;;;;;35.42;20.27;;;;;;;24.82;32.52;102202.38;5028975;28;20076;-60
2021/03/31 10:37:35;;;;;;;39.47;20.52;;;;;;;24.91;31.90;102200.66;5035129;28;20044;-59
2021/03/31 10:54:00;;;;;;;40.70;22.83;;;;;;;25.32;31.64;102186.91;5031274;28;20052;-58
2021/03/31 10:56:27;;;;;;;37.63;21.35;;;;;;;25.36;30.92;102170.38;5029658;28;20493;-58
2021/03/31 10:58:54;;;;;;;42.47;21.63;;;;;;;25.42;31.09;102175.16;5034589;28;20152;-59
2021/03/31 11:01:21;;;;;;;38.08;20.98;;;;;;;25.45;30.34;102170.50;5036309;28;20041;-63
2021/03/31 11:03:47;;;;;;;36.35;20.45;;;;;;;25.50;30.12;102171.72;5033358;28;20049;-60
2021/03/31 11:06:13;;;;;;;34.83;19.77;;;;;;;25.58;30.16;102161.06;5033899;28;20092;-67
2021/03/31 11:08:39;;;;;;;39.42;19.65;;;;;;;25.64;29.79;102159.59;5037025;28;20045;-59
2021/03/31 11:11:09;;;;;;;33.63;19.08;;;;;;;25.71;29.48;102159.81;5044904;28;20469;-60
2021/03/31 11:13:36;;;;;;;34.70;18.40;;;;;;;25.73;29.13;102152.47;5037564;28;20045;-58
2021/03/31 11:16:07;;;;;;;34.88;17.25;;;;;;;25.82;28.73;102156.09;5043633;28;20620;-64
2021/03/31 11:26:49;;;;;;;33.65;14.40;;;;;;;26.14;27.17;102138.56;5044103;28;20057;-59
2021/03/31 11:29:15;;;;;;;33.25;16.73;;;;;;;26.21;26.78;102135.09;5051252;28;20052;-60
2021/03/31 11:31:42;;;;;;;28.33;15.93;;;;;;;26.23;27.01;102126.84;5051639;28;20052;-60
2021/03/31 11:34:08;;;;;;;24.40;13.20;;;;;;;26.29;26.68;102120.84;5051177;28;20531;-63
2021/03/31 11:36:34;;;;;;;28.42;13.20;;;;;;;26.32;25.85;102125.06;5051578;28;20052;-65
2021/03/31 11:39:02;;;;;;;25.17;13.00;;;;;;;26.34;24.93;102117.69;5052116;28;20069;-63
2021/03/31 11:41:29;;;;;;;24.25;14.27;;;;;;;26.37;25.25;102112.00;5048323;28;20083;-60
2021/03/31 11:43:55;;;;;;;32.90;15.10;;;;;;;26.39;25.72;102105.44;5046731;28;20440;-64
2021/03/31 11:46:21;;;;;;;27.90;15.13;;;;;;;26.46;26.46;102105.69;5049890;28;20056;-58